Malé International Airport
VRMM : now visible

Airfield :











YOU CAN JOIN US ON...

 
LOGIN :

Register | Disclaimer

   EN    FR    IT 

 









Legend :    VFR   Marginal VFR   IFR   Intensive IFR   Very Intensive IFR
Visi :
Ceiling :
>= 8 km
>= 3000ft
5 to 8 km
1000 to 3000 ft
1500m to 5 km
500 to 1000 ft
800 to 1500m
200 to 500 ft
< 800m
< 200 ft
Symbols :   Thunderstorms  Fog  Heavy snow  Heavy precipitations  Wind > 20 kt






- Airport Elevation : 6 ft
- IATA code : MLE


VRMM - Malé International

CURRENT METAR :
  • 091800Z 28006KT 9999 FEW018 BKN270 29/25 Q1010 NOSIG

EXPIRED METARs :
  • 091700Z 27006KT 9999 FEW018 SCT120 BKN260 29/26 Q1010 NOSIG
  • 091600Z 26008KT 9999 FEW018 SCT120 BKN260 29/26 Q1010 NOSIG
  • 091500Z 25007KT 9999 FEW018 BKN120 29/25 Q1010 NOSIG
  • 091400Z 26007KT 9999 FEW018TCU BKN120 29/25 Q1009 NOSIG

TAF TAF VRMM
Valid from the 09 at 18:00 until the 11 at 00:00 UTC


091700Z 0918/1024 24008KT 9999 FEW017TCU
TEMPO 0918/0924 FEW016CB
VRMF FIR / Asia



MET'MAP, your aeronautical weather chart ! - Copyright ORBIFLY December 2007 - Disclaimer

ORBIFLY MET'MAP TEAM :

Programming & Development : Alexandra Zaïnal
Original concept : Baudouin d'Aumeries
Technical & hardware support : Manuel Goepfert
Assistance : Marc-Olivier Méhu




SOURCES & CREDITS :

   NOAA       Earth
Advisory